AirNav   Everest Fuels
 
 886 users online  

95IL Henderson Airport
Rosiclare, Illinois, USA

GOING TO ROSICLARE?


FAA INFORMATION EFFECTIVE 01 DECEMBER 2022

Location

FAA Identifier: 95IL
Lat/Long: 37-29-10.1800N 088-24-00.1450W
37-29.169667N 088-24.002417W
37.4861611,-88.4000403
(estimated)
Elevation: 485 ft. / 148 m (estimated)
Variation: 01E (1985)
From city: 4 miles NW of ROSICLARE, IL
Time zone: UTC -6 (UTC -5 during Daylight Saving Time)
Zip code: 62938

Airport Operations

Airport use: Private use. Permission required prior to landing
Activation date: 07/1975
Control tower: no
ARTCC: MEMPHIS CENTER
FSS: COLUMBIA FLIGHT SERVICE STATION
Attendance: UNATNDD
Wind indicator: no
Segmented circle: no

Airport Communications

WX AWOS-3P at GDA (16 nm SE): 118.15 (270-965-4877)

Nearby radio navigation aids

VOR radial/distance  VOR name  Freq  Var
CNGr033/35.4CUNNINGHAM VOR/DME113.1003E

Airport Services

Runway Information

Runway 3/21

Dimensions: 2750 x 100 ft. / 838 x 30 m
Surface: turf
RUNWAY 3  RUNWAY 21
Traffic pattern: leftleft

Airport Ownership and Management from official FAA records

Ownership: Privately-owned
Owner: CINDY HENDERSON
RR 1 BOX 180C
GOLCONDA, IL 62938
Phone 618-264-2991
Manager: CINDY HENDERSON
RR 1 BOX 180C
GOLCONDA, IL 62938
Phone 618-264-2991

Additional Remarks

FOR CD CTC MEMPHIS ARTCC AT 901-368-8453/8449.

Instrument Procedures

There are no published instrument procedures at 95IL.

Some nearby airports with instrument procedures:

KGDA - Marion-Crittenden County James C Johnson Regional Airport (16 nm SE)
KHSB - Harrisburg-Raleigh Airport (21 nm N)
KTWT - Sturgis Municipal Airport (21 nm E)
KPAH - Barkley Regional Airport (31 nm SW)
KMWA - Veterans Airport of Southern Illinois (33 nm NW)
 
Loc | Ops | Rwys | IFR | FBO | Links
Com | Nav | Svcs | Stats | Notes
Area around 95IL (Henderson Airport)
 
Road maps at: MapQuest Bing Google
 
Aerial photo
WARNING: Photo may not be current or correct
Aerial photo of 95IL (Henderson Airport)
Photo by Dave Warner
Taken in the Fall of 2019
looking west.

Do you have a better or more recent aerial photo of Henderson Airport that you would like to share? If so, please send us your photo.

 
Sectional chart

 
Airport distance calculator
Flying to Henderson Airport? Find the distance to fly.

From to 95IL

Sunrise and sunset
Times for 07-Dec-2022
 Local
(UTC-6)
 Zulu
(UTC)
Morning civil twilight06:2712:27
Sunrise06:5612:56
Sunset16:3422:34
Evening civil twilight17:0323:03

Current date and time
Zulu (UTC)  07-Dec-2022 13:14:36
Local (UTC-6)  07-Dec-2022 07:14:36
 
METAR
KGDA 
16nm SE 
071255Z AUTO 00000KT 5SM BR OVC003 10/10 A3016 RMK AO2 T01010100
KHSB 
21nm N 
071303Z AUTO 00000KT 1 1/4SM BR OVC002 08/08 A3018 RMK AO2
KTWT 
21nm E 
071255Z AUTO 00000KT 1/2SM FG OVC002 10/09 A3017 RMK AO2
KM30 
25nm SW 
071255Z AUTO 00000KT 4SM BR SCT005 OVC032 10/10 A3016 RMK AO2 T01030098
KPAH 
31nm SW 
071253Z 00000KT 8SM OVC031 12/11 A3015 RMK AO2 SLP210 T01170111
TAF
KPAH 
31nm SW 
071120Z 0712/0812 34004KT 6SM BR OVC005 TEMPO 0712/0715 FEW005 OVC021 FM071900 34004KT P6SM BKN012 FM072200 34004KT P6SM BKN023 FM080900 34004KT P6SM OVC015 FM081100 05005KT 4SM RA BR OVC007
NOTAMs
Click for the latest NOTAMs
NOTAMs are issued by the DoD/FAA and will open in a separate window not controlled by AirNav.

 

 
 

Would you like to see your business listed on this page?

 If your business provides an interesting product or service to pilots, flight crews, aircraft, or users of the Henderson Airport, you should consider listing it here.  To start the listing process, click on the button below
 
Add a business
 

Other Pages about Henderson Airport

Update a link
 
Copyright © AirNav, LLC. All rights reserved. Privacy Policy  Contact